sensor_id;sensor_type;location;lat;lon;timestamp;temperature;humidity
12434;DHT22;6281;49.038;8.372;2023-09-19T00:00:47;17.00;99.90
12434;DHT22;6281;49.038;8.372;2023-09-19T00:03:14;17.00;99.90
12434;DHT22;6281;49.038;8.372;2023-09-19T00:05:41;17.10;99.90
12434;DHT22;6281;49.038;8.372;2023-09-19T00:08:09;17.10;99.90
12434;DHT22;6281;49.038;8.372;2023-09-19T00:10:39;17.00;99.90
12434;DHT22;6281;49.038;8.372;2023-09-19T00:13:09;17.00;99.90
12434;DHT22;6281;49.038;8.372;2023-09-19T00:15:40;16.90;99.90
12434;DHT22;6281;49.038;8.372;2023-09-19T00:18:07;17.00;99.90
12434;DHT22;6281;49.038;8.372;2023-09-19T00:20:35;17.00;99.90
12434;DHT22;6281;49.038;8.372;2023-09-19T00:23:04;17.10;99.90
12434;DHT22;6281;49.038;8.372;2023-09-19T00:25:34;17.00;99.90
12434;DHT22;6281;49.038;8.372;2023-09-19T00:28:04;17.00;99.90
12434;DHT22;6281;49.038;8.372;2023-09-19T00:30:41;17.10;99.90
12434;DHT22;6281;49.038;8.372;2023-09-19T00:33:11;17.20;99.90
12434;DHT22;6281;49.038;8.372;2023-09-19T00:35:49;17.10;99.90
12434;DHT22;6281;49.038;8.372;2023-09-19T00:38:22;17.10;99.90
12434;DHT22;6281;49.038;8.372;2023-09-19T00:40:55;17.00;99.90
12434;DHT22;6281;49.038;8.372;2023-09-19T00:43:27;17.10;99.90
12434;DHT22;6281;49.038;8.372;2023-09-19T00:46:01;17.10;99.90
12434;DHT22;6281;49.038;8.372;2023-09-19T00:48:30;17.20;99.90
12434;DHT22;6281;49.038;8.372;2023-09-19T00:50:59;17.10;99.90
12434;DHT22;6281;49.038;8.372;2023-09-19T00:53:34;17.10;99.90
12434;DHT22;6281;49.038;8.372;2023-09-19T00:56:02;17.10;99.90
12434;DHT22;6281;49.038;8.372;2023-09-19T00:58:29;17.10;99.90
12434;DHT22;6281;49.038;8.372;2023-09-19T01:01:12;17.20;99.90
12434;DHT22;6281;49.038;8.372;2023-09-19T01:03:40;17.10;99.90
12434;DHT22;6281;49.038;8.372;2023-09-19T01:06:12;17.10;99.90
12434;DHT22;6281;49.038;8.372;2023-09-19T01:08:39;17.20;99.90
12434;DHT22;6281;49.038;8.372;2023-09-19T01:11:11;17.30;99.90
12434;DHT22;6281;49.038;8.372;2023-09-19T01:13:52;17.30;99.90
12434;DHT22;6281;49.038;8.372;2023-09-19T01:16:31;17.40;99.90
12434;DHT22;6281;49.038;8.372;2023-09-19T01:19:22;17.20;99.90
12434;DHT22;6281;49.038;8.372;2023-09-19T01:21:57;17.30;99.90
12434;DHT22;6281;49.038;8.372;2023-09-19T01:24:55;17.30;99.90
12434;DHT22;6281;49.038;8.372;2023-09-19T01:27:53;17.40;99.90
12434;DHT22;6281;49.038;8.372;2023-09-19T01:30:36;17.40;99.90
12434;DHT22;6281;49.038;8.372;2023-09-19T01:33:09;17.30;99.90
12434;DHT22;6281;49.038;8.372;2023-09-19T01:35:38;17.30;99.90
12434;DHT22;6281;49.038;8.372;2023-09-19T01:38:07;17.30;99.90
12434;DHT22;6281;49.038;8.372;2023-09-19T01:40:41;17.30;99.90
12434;DHT22;6281;49.038;8.372;2023-09-19T01:43:12;17.20;99.90
12434;DHT22;6281;49.038;8.372;2023-09-19T01:45:53;17.20;99.90
12434;DHT22;6281;49.038;8.372;2023-09-19T01:48:28;17.10;99.90
12434;DHT22;6281;49.038;8.372;2023-09-19T01:51:07;17.10;99.90
12434;DHT22;6281;49.038;8.372;2023-09-19T01:53:50;17.00;99.90
12434;DHT22;6281;49.038;8.372;2023-09-19T01:56:32;17.10;99.90
12434;DHT22;6281;49.038;8.372;2023-09-19T01:59:06;17.10;99.90
12434;DHT22;6281;49.038;8.372;2023-09-19T02:01:46;17.00;99.90
12434;DHT22;6281;49.038;8.372;2023-09-19T02:04:16;17.20;99.90
12434;DHT22;6281;49.038;8.372;2023-09-19T02:06:45;17.10;99.90
12434;DHT22;6281;49.038;8.372;2023-09-19T02:09:13;17.10;99.90
12434;DHT22;6281;49.038;8.372;2023-09-19T02:11:41;17.20;99.90
12434;DHT22;6281;49.038;8.372;2023-09-19T02:14:08;17.20;99.90
12434;DHT22;6281;49.038;8.372;2023-09-19T02:16:36;17.20;99.90
12434;DHT22;6281;49.038;8.372;2023-09-19T02:19:06;17.20;99.90
12434;DHT22;6281;49.038;8.372;2023-09-19T02:21:35;17.20;99.90
12434;DHT22;6281;49.038;8.372;2023-09-19T02:24:04;17.20;99.90
12434;DHT22;6281;49.038;8.372;2023-09-19T02:26:33;17.20;99.90
12434;DHT22;6281;49.038;8.372;2023-09-19T02:29:02;17.20;99.90
12434;DHT22;6281;49.038;8.372;2023-09-19T02:31:30;17.20;99.90
12434;DHT22;6281;49.038;8.372;2023-09-19T02:33:57;17.20;99.90
12434;DHT22;6281;49.038;8.372;2023-09-19T02:36:27;17.10;99.90
12434;DHT22;6281;49.038;8.372;2023-09-19T02:38:56;17.00;99.90
12434;DHT22;6281;49.038;8.372;2023-09-19T02:41:23;17.00;99.90
12434;DHT22;6281;49.038;8.372;2023-09-19T02:43:55;17.00;99.90
12434;DHT22;6281;49.038;8.372;2023-09-19T02:46:25;17.10;99.90
12434;DHT22;6281;49.038;8.372;2023-09-19T02:48:53;17.00;99.90
12434;DHT22;6281;49.038;8.372;2023-09-19T02:51:22;17.10;99.90
12434;DHT22;6281;49.038;8.372;2023-09-19T02:53:55;17.00;99.90
12434;DHT22;6281;49.038;8.372;2023-09-19T02:56:31;17.00;99.90
12434;DHT22;6281;49.038;8.372;2023-09-19T02:59:01;17.00;99.90
12434;DHT22;6281;49.038;8.372;2023-09-19T03:01:33;17.00;99.90
12434;DHT22;6281;49.038;8.372;2023-09-19T03:04:04;17.10;99.90
12434;DHT22;6281;49.038;8.372;2023-09-19T03:06:33;17.00;99.90
12434;DHT22;6281;49.038;8.372;2023-09-19T03:09:01;17.00;99.90
12434;DHT22;6281;49.038;8.372;2023-09-19T03:11:34;17.10;99.90
12434;DHT22;6281;49.038;8.372;2023-09-19T03:14:01;17.10;99.90
12434;DHT22;6281;49.038;8.372;2023-09-19T03:16:34;17.10;99.90
12434;DHT22;6281;49.038;8.372;2023-09-19T03:19:03;17.10;99.90
12434;DHT22;6281;49.038;8.372;2023-09-19T03:21:32;17.00;99.90
12434;DHT22;6281;49.038;8.372;2023-09-19T03:24:08;17.10;99.90
12434;DHT22;6281;49.038;8.372;2023-09-19T03:26:35;17.10;99.90
12434;DHT22;6281;49.038;8.372;2023-09-19T03:29:07;17.10;99.90
12434;DHT22;6281;49.038;8.372;2023-09-19T03:31:35;17.10;99.90
12434;DHT22;6281;49.038;8.372;2023-09-19T03:34:03;17.20;99.90
12434;DHT22;6281;49.038;8.372;2023-09-19T03:36:30;17.10;99.90
12434;DHT22;6281;49.038;8.372;2023-09-19T03:39:00;17.10;99.90
12434;DHT22;6281;49.038;8.372;2023-09-19T03:41:28;17.10;99.90
12434;DHT22;6281;49.038;8.372;2023-09-19T03:44:04;17.20;99.90
12434;DHT22;6281;49.038;8.372;2023-09-19T03:46:34;17.10;99.90
12434;DHT22;6281;49.038;8.372;2023-09-19T03:49:04;17.10;99.90
12434;DHT22;6281;49.038;8.372;2023-09-19T03:51:35;17.10;99.90
12434;DHT22;6281;49.038;8.372;2023-09-19T03:54:09;17.10;99.90
12434;DHT22;6281;49.038;8.372;2023-09-19T03:56:38;17.10;99.90
12434;DHT22;6281;49.038;8.372;2023-09-19T03:59:05;17.10;99.90
12434;DHT22;6281;49.038;8.372;2023-09-19T04:01:35;17.10;99.90
12434;DHT22;6281;49.038;8.372;2023-09-19T04:04:10;17.10;99.90
12434;DHT22;6281;49.038;8.372;2023-09-19T04:06:41;17.00;99.90
12434;DHT22;6281;49.038;8.372;2023-09-19T04:09:08;17.10;99.90
12434;DHT22;6281;49.038;8.372;2023-09-19T04:11:41;17.00;99.90
12434;DHT22;6281;49.038;8.372;2023-09-19T04:14:12;17.00;99.90
12434;DHT22;6281;49.038;8.372;2023-09-19T04:16:39;17.00;99.90
12434;DHT22;6281;49.038;8.372;2023-09-19T04:19:14;17.10;99.90
12434;DHT22;6281;49.038;8.372;2023-09-19T04:21:45;17.00;99.90
12434;DHT22;6281;49.038;8.372;2023-09-19T04:24:15;16.90;99.90
12434;DHT22;6281;49.038;8.372;2023-09-19T04:26:49;17.10;99.90
12434;DHT22;6281;49.038;8.372;2023-09-19T04:29:16;17.10;99.90
12434;DHT22;6281;49.038;8.372;2023-09-19T04:31:44;17.00;99.90
12434;DHT22;6281;49.038;8.372;2023-09-19T04:34:11;17.00;99.90
12434;DHT22;6281;49.038;8.372;2023-09-19T04:36:40;16.90;99.90
12434;DHT22;6281;49.038;8.372;2023-09-19T04:39:09;17.00;99.90
12434;DHT22;6281;49.038;8.372;2023-09-19T04:41:38;17.00;99.90
12434;DHT22;6281;49.038;8.372;2023-09-19T04:44:08;17.00;99.90
12434;DHT22;6281;49.038;8.372;2023-09-19T04:46:36;17.00;99.90
12434;DHT22;6281;49.038;8.372;2023-09-19T04:49:05;17.00;99.90
12434;DHT22;6281;49.038;8.372;2023-09-19T04:51:34;17.00;99.90
12434;DHT22;6281;49.038;8.372;2023-09-19T04:54:01;16.90;99.90
12434;DHT22;6281;49.038;8.372;2023-09-19T04:56:34;16.90;99.90
12434;DHT22;6281;49.038;8.372;2023-09-19T04:59:10;16.90;99.90
12434;DHT22;6281;49.038;8.372;2023-09-19T05:01:40;17.00;99.90
12434;DHT22;6281;49.038;8.372;2023-09-19T05:04:10;17.00;99.90
12434;DHT22;6281;49.038;8.372;2023-09-19T05:06:36;17.00;99.90
12434;DHT22;6281;49.038;8.372;2023-09-19T05:09:03;17.00;99.90
12434;DHT22;6281;49.038;8.372;2023-09-19T05:11:31;17.00;99.90
12434;DHT22;6281;49.038;8.372;2023-09-19T05:13:59;17.00;99.90
12434;DHT22;6281;49.038;8.372;2023-09-19T05:16:30;16.90;99.90
12434;DHT22;6281;49.038;8.372;2023-09-19T05:18:58;16.90;99.90
12434;DHT22;6281;49.038;8.372;2023-09-19T05:21:30;16.90;99.90
12434;DHT22;6281;49.038;8.372;2023-09-19T05:24:01;16.70;99.90
12434;DHT22;6281;49.038;8.372;2023-09-19T05:26:28;16.70;99.90
12434;DHT22;6281;49.038;8.372;2023-09-19T05:28:58;16.80;99.90
12434;DHT22;6281;49.038;8.372;2023-09-19T05:31:26;16.70;99.90
12434;DHT22;6281;49.038;8.372;2023-09-19T05:33:54;16.70;99.90
12434;DHT22;6281;49.038;8.372;2023-09-19T05:36:21;16.80;99.90
12434;DHT22;6281;49.038;8.372;2023-09-19T05:38:50;16.90;99.90
12434;DHT22;6281;49.038;8.372;2023-09-19T05:41:19;16.90;99.90
12434;DHT22;6281;49.038;8.372;2023-09-19T05:43:57;16.80;99.90
12434;DHT22;6281;49.038;8.372;2023-09-19T05:46:34;16.70;99.90
12434;DHT22;6281;49.038;8.372;2023-09-19T05:49:02;16.80;99.90
12434;DHT22;6281;49.038;8.372;2023-09-19T05:51:31;16.70;99.90
12434;DHT22;6281;49.038;8.372;2023-09-19T05:53:59;16.70;99.90
12434;DHT22;6281;49.038;8.372;2023-09-19T05:56:26;16.70;99.90
12434;DHT22;6281;49.038;8.372;2023-09-19T05:58:53;16.60;99.90
12434;DHT22;6281;49.038;8.372;2023-09-19T06:01:20;16.60;99.90
12434;DHT22;6281;49.038;8.372;2023-09-19T06:03:52;16.60;99.90
12434;DHT22;6281;49.038;8.372;2023-09-19T06:06:32;16.60;99.90
12434;DHT22;6281;49.038;8.372;2023-09-19T06:09:04;16.60;99.90
12434;DHT22;6281;49.038;8.372;2023-09-19T06:11:34;16.60;99.90
12434;DHT22;6281;49.038;8.372;2023-09-19T06:14:01;16.60;99.90
12434;DHT22;6281;49.038;8.372;2023-09-19T06:16:28;16.60;99.90
12434;DHT22;6281;49.038;8.372;2023-09-19T06:18:58;16.70;99.90
12434;DHT22;6281;49.038;8.372;2023-09-19T06:21:28;16.70;99.90
12434;DHT22;6281;49.038;8.372;2023-09-19T06:23:55;16.60;99.90
12434;DHT22;6281;49.038;8.372;2023-09-19T06:26:26;16.50;99.90
12434;DHT22;6281;49.038;8.372;2023-09-19T06:28:53;16.60;99.90
12434;DHT22;6281;49.038;8.372;2023-09-19T06:31:21;16.70;99.90
12434;DHT22;6281;49.038;8.372;2023-09-19T06:33:54;16.60;99.90
12434;DHT22;6281;49.038;8.372;2023-09-19T06:36:21;16.50;99.90
12434;DHT22;6281;49.038;8.372;2023-09-19T06:38:51;16.50;99.90
12434;DHT22;6281;49.038;8.372;2023-09-19T06:41:18;16.50;99.90
12434;DHT22;6281;49.038;8.372;2023-09-19T06:43:45;16.50;99.90
12434;DHT22;6281;49.038;8.372;2023-09-19T06:46:11;16.50;99.90
12434;DHT22;6281;49.038;8.372;2023-09-19T06:48:39;16.60;99.90
12434;DHT22;6281;49.038;8.372;2023-09-19T06:51:07;16.60;99.90
12434;DHT22;6281;49.038;8.372;2023-09-19T06:53:37;16.60;99.90
12434;DHT22;6281;49.038;8.372;2023-09-19T06:56:10;16.60;99.90
12434;DHT22;6281;49.038;8.372;2023-09-19T06:58:38;16.60;99.90
12434;DHT22;6281;49.038;8.372;2023-09-19T07:01:08;16.60;99.90
12434;DHT22;6281;49.038;8.372;2023-09-19T07:03:36;16.60;99.90
12434;DHT22;6281;49.038;8.372;2023-09-19T07:06:04;16.60;99.90
12434;DHT22;6281;49.038;8.372;2023-09-19T07:08:32;16.70;99.90
12434;DHT22;6281;49.038;8.372;2023-09-19T07:11:07;16.70;99.90
12434;DHT22;6281;49.038;8.372;2023-09-19T07:13:36;16.70;99.90
12434;DHT22;6281;49.038;8.372;2023-09-19T07:16:06;16.90;99.90
12434;DHT22;6281;49.038;8.372;2023-09-19T07:18:36;16.80;99.90
12434;DHT22;6281;49.038;8.372;2023-09-19T07:21:03;16.90;99.90
12434;DHT22;6281;49.038;8.372;2023-09-19T07:23:31;17.20;99.90
12434;DHT22;6281;49.038;8.372;2023-09-19T07:26:02;17.00;99.90
12434;DHT22;6281;49.038;8.372;2023-09-19T07:28:30;17.20;99.90
12434;DHT22;6281;49.038;8.372;2023-09-19T07:31:01;17.20;99.90
12434;DHT22;6281;49.038;8.372;2023-09-19T07:33:29;17.10;99.90
12434;DHT22;6281;49.038;8.372;2023-09-19T07:35:55;17.20;99.90
12434;DHT22;6281;49.038;8.372;2023-09-19T07:38:22;17.30;99.90
12434;DHT22;6281;49.038;8.372;2023-09-19T07:40:50;17.40;99.90
12434;DHT22;6281;49.038;8.372;2023-09-19T07:43:20;17.40;99.90
12434;DHT22;6281;49.038;8.372;2023-09-19T07:45:49;17.40;99.90
12434;DHT22;6281;49.038;8.372;2023-09-19T07:48:18;17.70;99.90
12434;DHT22;6281;49.038;8.372;2023-09-19T07:50:45;17.80;99.90
12434;DHT22;6281;49.038;8.372;2023-09-19T07:53:12;17.70;99.90
12434;DHT22;6281;49.038;8.372;2023-09-19T07:55:48;17.60;99.90
12434;DHT22;6281;49.038;8.372;2023-09-19T07:58:15;17.80;99.90
12434;DHT22;6281;49.038;8.372;2023-09-19T08:00:43;17.90;99.90
12434;DHT22;6281;49.038;8.372;2023-09-19T08:03:11;18.00;99.90
12434;DHT22;6281;49.038;8.372;2023-09-19T08:05:45;18.10;99.90
12434;DHT22;6281;49.038;8.372;2023-09-19T08:08:16;18.10;99.90
12434;DHT22;6281;49.038;8.372;2023-09-19T08:10:52;18.20;99.90
12434;DHT22;6281;49.038;8.372;2023-09-19T08:13:25;18.30;99.90
12434;DHT22;6281;49.038;8.372;2023-09-19T08:15:52;18.60;99.90
12434;DHT22;6281;49.038;8.372;2023-09-19T08:18:22;18.70;99.90
12434;DHT22;6281;49.038;8.372;2023-09-19T08:20:53;18.90;99.90
12434;DHT22;6281;49.038;8.372;2023-09-19T08:23:26;18.80;99.90
12434;DHT22;6281;49.038;8.372;2023-09-19T08:25:58;18.40;99.90
12434;DHT22;6281;49.038;8.372;2023-09-19T08:28:28;18.50;99.90
12434;DHT22;6281;49.038;8.372;2023-09-19T08:31:03;18.60;99.90
12434;DHT22;6281;49.038;8.372;2023-09-19T08:33:32;18.50;99.90
12434;DHT22;6281;49.038;8.372;2023-09-19T08:36:05;18.50;99.90
12434;DHT22;6281;49.038;8.372;2023-09-19T08:38:35;18.70;99.90
12434;DHT22;6281;49.038;8.372;2023-09-19T08:41:09;18.70;99.90
12434;DHT22;6281;49.038;8.372;2023-09-19T08:43:41;18.80;99.90
12434;DHT22;6281;49.038;8.372;2023-09-19T08:46:20;18.80;99.90
12434;DHT22;6281;49.038;8.372;2023-09-19T08:48:57;18.80;99.90
12434;DHT22;6281;49.038;8.372;2023-09-19T08:51:30;18.90;99.90
12434;DHT22;6281;49.038;8.372;2023-09-19T08:54:03;19.20;99.90
12434;DHT22;6281;49.038;8.372;2023-09-19T08:56:35;19.20;99.90
12434;DHT22;6281;49.038;8.372;2023-09-19T08:59:08;19.10;99.90
12434;DHT22;6281;49.038;8.372;2023-09-19T09:01:37;19.50;99.90
12434;DHT22;6281;49.038;8.372;2023-09-19T09:04:08;19.50;99.90
12434;DHT22;6281;49.038;8.372;2023-09-19T09:06:41;19.50;99.90
12434;DHT22;6281;49.038;8.372;2023-09-19T09:09:16;19.60;99.90
12434;DHT22;6281;49.038;8.372;2023-09-19T09:11:43;19.80;99.90
12434;DHT22;6281;49.038;8.372;2023-09-19T09:14:17;20.00;99.90
12434;DHT22;6281;49.038;8.372;2023-09-19T09:16:46;19.60;99.90
12434;DHT22;6281;49.038;8.372;2023-09-19T09:19:16;19.90;99.90
12434;DHT22;6281;49.038;8.372;2023-09-19T09:21:53;20.70;99.90
12434;DHT22;6281;49.038;8.372;2023-09-19T09:24:26;21.20;99.90
12434;DHT22;6281;49.038;8.372;2023-09-19T09:26:54;21.40;99.90
12434;DHT22;6281;49.038;8.372;2023-09-19T09:29:41;21.70;99.90
12434;DHT22;6281;49.038;8.372;2023-09-19T09:32:27;21.40;99.90
12434;DHT22;6281;49.038;8.372;2023-09-19T09:35:07;21.20;99.90
12434;DHT22;6281;49.038;8.372;2023-09-19T09:37:38;22.20;99.90
12434;DHT22;6281;49.038;8.372;2023-09-19T09:40:09;22.60;99.90
12434;DHT22;6281;49.038;8.372;2023-09-19T09:43:01;23.40;99.90
12434;DHT22;6281;49.038;8.372;2023-09-19T09:45:29;22.80;99.90
12434;DHT22;6281;49.038;8.372;2023-09-19T09:48:05;22.40;99.90
12434;DHT22;6281;49.038;8.372;2023-09-19T09:50:47;23.10;99.90
12434;DHT22;6281;49.038;8.372;2023-09-19T09:53:23;22.90;99.90
12434;DHT22;6281;49.038;8.372;2023-09-19T09:55:57;23.30;99.90
12434;DHT22;6281;49.038;8.372;2023-09-19T09:58:32;23.40;99.90
12434;DHT22;6281;49.038;8.372;2023-09-19T10:00:59;23.70;99.90
12434;DHT22;6281;49.038;8.372;2023-09-19T10:03:38;23.90;99.90
12434;DHT22;6281;49.038;8.372;2023-09-19T10:06:10;24.80;99.90
12434;DHT22;6281;49.038;8.372;2023-09-19T10:09:03;23.10;99.90
12434;DHT22;6281;49.038;8.372;2023-09-19T10:11:42;23.00;99.90
12434;DHT22;6281;49.038;8.372;2023-09-19T10:14:14;23.40;99.90
12434;DHT22;6281;49.038;8.372;2023-09-19T10:16:46;23.40;99.90
12434;DHT22;6281;49.038;8.372;2023-09-19T10:19:20;22.90;99.90
12434;DHT22;6281;49.038;8.372;2023-09-19T10:21:50;22.70;99.90
12434;DHT22;6281;49.038;8.372;2023-09-19T10:24:29;23.60;99.90
12434;DHT22;6281;49.038;8.372;2023-09-19T10:27:02;23.30;99.90
12434;DHT22;6281;49.038;8.372;2023-09-19T10:29:34;22.10;99.90
12434;DHT22;6281;49.038;8.372;2023-09-19T10:32:06;23.30;99.90
12434;DHT22;6281;49.038;8.372;2023-09-19T10:34:35;24.30;99.90
12434;DHT22;6281;49.038;8.372;2023-09-19T10:37:03;24.10;99.90
12434;DHT22;6281;49.038;8.372;2023-09-19T10:39:39;23.90;99.90
12434;DHT22;6281;49.038;8.372;2023-09-19T10:42:10;23.50;99.90
12434;DHT22;6281;49.038;8.372;2023-09-19T10:44:43;23.20;99.90
12434;DHT22;6281;49.038;8.372;2023-09-19T10:47:13;23.70;99.90
12434;DHT22;6281;49.038;8.372;2023-09-19T10:49:45;25.10;99.90
12434;DHT22;6281;49.038;8.372;2023-09-19T10:52:14;23.20;99.90
12434;DHT22;6281;49.038;8.372;2023-09-19T10:54:49;24.60;99.90
12434;DHT22;6281;49.038;8.372;2023-09-19T10:57:19;24.00;99.90
12434;DHT22;6281;49.038;8.372;2023-09-19T11:00:03;22.50;99.90
12434;DHT22;6281;49.038;8.372;2023-09-19T11:03:17;24.00;99.90
12434;DHT22;6281;49.038;8.372;2023-09-19T11:06:07;23.20;99.90
12434;DHT22;6281;49.038;8.372;2023-09-19T11:08:56;23.60;99.90
12434;DHT22;6281;49.038;8.372;2023-09-19T11:12:05;23.90;99.90
12434;DHT22;6281;49.038;8.372;2023-09-19T11:14:40;24.50;99.90
12434;DHT22;6281;49.038;8.372;2023-09-19T11:17:42;25.10;99.90
12434;DHT22;6281;49.038;8.372;2023-09-19T11:20:25;25.00;99.90
12434;DHT22;6281;49.038;8.372;2023-09-19T11:23:20;23.60;99.90
12434;DHT22;6281;49.038;8.372;2023-09-19T11:25:50;24.80;99.90
12434;DHT22;6281;49.038;8.372;2023-09-19T11:28:36;23.80;99.90
12434;DHT22;6281;49.038;8.372;2023-09-19T11:34:43;21.80;99.90
12434;DHT22;6281;49.038;8.372;2023-09-19T11:40:35;22.60;99.90
12434;DHT22;6281;49.038;8.372;2023-09-19T11:43:29;22.80;99.90
12434;DHT22;6281;49.038;8.372;2023-09-19T11:46:14;24.50;99.90
12434;DHT22;6281;49.038;8.372;2023-09-19T11:48:43;25.00;99.90
12434;DHT22;6281;49.038;8.372;2023-09-19T11:51:16;25.30;99.90
12434;DHT22;6281;49.038;8.372;2023-09-19T11:53:51;25.30;99.90
12434;DHT22;6281;49.038;8.372;2023-09-19T11:56:19;24.60;99.90
12434;DHT22;6281;49.038;8.372;2023-09-19T11:58:51;24.90;99.90
12434;DHT22;6281;49.038;8.372;2023-09-19T12:01:24;24.20;99.90
12434;DHT22;6281;49.038;8.372;2023-09-19T12:03:54;24.40;99.90
12434;DHT22;6281;49.038;8.372;2023-09-19T12:06:25;24.00;99.90
12434;DHT22;6281;49.038;8.372;2023-09-19T12:08:57;25.50;99.90
12434;DHT22;6281;49.038;8.372;2023-09-19T12:11:31;24.40;99.90
12434;DHT22;6281;49.038;8.372;2023-09-19T12:13:59;24.10;99.90
12434;DHT22;6281;49.038;8.372;2023-09-19T12:16:34;25.50;99.90
12434;DHT22;6281;49.038;8.372;2023-09-19T12:19:18;24.60;99.90
12434;DHT22;6281;49.038;8.372;2023-09-19T12:21:54;25.50;93.80
12434;DHT22;6281;49.038;8.372;2023-09-19T12:24:22;24.80;98.00
12434;DHT22;6281;49.038;8.372;2023-09-19T12:26:52;24.00;98.60
12434;DHT22;6281;49.038;8.372;2023-09-19T12:29:23;23.60;99.90
12434;DHT22;6281;49.038;8.372;2023-09-19T12:31:55;24.80;98.00
12434;DHT22;6281;49.038;8.372;2023-09-19T12:34:26;25.60;96.50
12434;DHT22;6281;49.038;8.372;2023-09-19T12:37:07;24.80;93.60
12434;DHT22;6281;49.038;8.372;2023-09-19T12:39:41;25.30;94.80
12434;DHT22;6281;49.038;8.372;2023-09-19T12:42:10;25.60;94.50
12434;DHT22;6281;49.038;8.372;2023-09-19T12:44:41;25.40;93.10
12434;DHT22;6281;49.038;8.372;2023-09-19T12:47:13;25.80;92.90
12434;DHT22;6281;49.038;8.372;2023-09-19T12:50:10;26.30;86.80
12434;DHT22;6281;49.038;8.372;2023-09-19T12:52:43;25.30;91.20
12434;DHT22;6281;49.038;8.372;2023-09-19T12:55:26;24.70;88.40
12434;DHT22;6281;49.038;8.372;2023-09-19T12:58:08;24.90;85.60
12434;DHT22;6281;49.038;8.372;2023-09-19T13:00:44;25.10;84.50
12434;DHT22;6281;49.038;8.372;2023-09-19T13:03:17;25.00;87.40
12434;DHT22;6281;49.038;8.372;2023-09-19T13:05:53;24.90;91.30
12434;DHT22;6281;49.038;8.372;2023-09-19T13:08:27;24.30;94.00
12434;DHT22;6281;49.038;8.372;2023-09-19T13:11:14;25.10;91.60
12434;DHT22;6281;49.038;8.372;2023-09-19T13:13:46;25.00;90.40
12434;DHT22;6281;49.038;8.372;2023-09-19T13:16:16;23.70;98.90
12434;DHT22;6281;49.038;8.372;2023-09-19T13:18:52;24.10;95.90
12434;DHT22;6281;49.038;8.372;2023-09-19T13:21:30;24.70;96.10
12434;DHT22;6281;49.038;8.372;2023-09-19T13:24:21;25.30;94.50
12434;DHT22;6281;49.038;8.372;2023-09-19T13:26:53;25.10;91.60
12434;DHT22;6281;49.038;8.372;2023-09-19T13:29:22;24.90;94.50
12434;DHT22;6281;49.038;8.372;2023-09-19T13:31:51;24.90;93.10
12434;DHT22;6281;49.038;8.372;2023-09-19T13:34:20;24.50;98.30
12434;DHT22;6281;49.038;8.372;2023-09-19T13:36:47;24.50;98.80
12434;DHT22;6281;49.038;8.372;2023-09-19T13:39:14;24.80;98.80
12434;DHT22;6281;49.038;8.372;2023-09-19T13:41:47;25.30;97.10
12434;DHT22;6281;49.038;8.372;2023-09-19T13:44:17;25.00;94.90
12434;DHT22;6281;49.038;8.372;2023-09-19T13:46:45;25.10;93.60
12434;DHT22;6281;49.038;8.372;2023-09-19T13:49:12;24.80;94.20
12434;DHT22;6281;49.038;8.372;2023-09-19T13:51:40;24.90;91.50
12434;DHT22;6281;49.038;8.372;2023-09-19T13:54:09;24.10;96.00
12434;DHT22;6281;49.038;8.372;2023-09-19T13:56:44;24.80;98.40
12434;DHT22;6281;49.038;8.372;2023-09-19T13:59:11;25.00;95.40
12434;DHT22;6281;49.038;8.372;2023-09-19T14:01:38;24.80;99.90
12434;DHT22;6281;49.038;8.372;2023-09-19T14:04:05;25.40;94.30
12434;DHT22;6281;49.038;8.372;2023-09-19T14:06:32;25.30;94.90
12434;DHT22;6281;49.038;8.372;2023-09-19T14:09:01;26.10;92.70
12434;DHT22;6281;49.038;8.372;2023-09-19T14:11:30;24.00;98.70
12434;DHT22;6281;49.038;8.372;2023-09-19T14:13:57;23.60;99.90
12434;DHT22;6281;49.038;8.372;2023-09-19T14:16:27;24.20;99.40
12434;DHT22;6281;49.038;8.372;2023-09-19T14:18:56;24.40;98.90
12434;DHT22;6281;49.038;8.372;2023-09-19T14:21:23;24.90;95.70
12434;DHT22;6281;49.038;8.372;2023-09-19T14:23:53;24.70;97.00
12434;DHT22;6281;49.038;8.372;2023-09-19T14:26:22;25.20;93.10
12434;DHT22;6281;49.038;8.372;2023-09-19T14:28:49;25.30;90.80
12434;DHT22;6281;49.038;8.372;2023-09-19T14:31:16;25.30;89.70
12434;DHT22;6281;49.038;8.372;2023-09-19T14:33:43;25.60;90.50
12434;DHT22;6281;49.038;8.372;2023-09-19T14:36:10;25.00;90.20
12434;DHT22;6281;49.038;8.372;2023-09-19T14:38:39;25.00;90.50
12434;DHT22;6281;49.038;8.372;2023-09-19T14:41:06;25.40;88.40
12434;DHT22;6281;49.038;8.372;2023-09-19T14:43:36;24.80;92.40
12434;DHT22;6281;49.038;8.372;2023-09-19T14:46:03;25.50;89.90
12434;DHT22;6281;49.038;8.372;2023-09-19T14:48:30;24.30;94.00
12434;DHT22;6281;49.038;8.372;2023-09-19T14:51:02;24.60;94.40
12434;DHT22;6281;49.038;8.372;2023-09-19T14:53:29;25.00;91.60
12434;DHT22;6281;49.038;8.372;2023-09-19T14:55:56;23.90;98.50
12434;DHT22;6281;49.038;8.372;2023-09-19T14:58:23;23.90;99.90
12434;DHT22;6281;49.038;8.372;2023-09-19T15:00:53;24.00;99.90
12434;DHT22;6281;49.038;8.372;2023-09-19T15:03:20;24.50;94.40
12434;DHT22;6281;49.038;8.372;2023-09-19T15:05:50;24.50;99.90
12434;DHT22;6281;49.038;8.372;2023-09-19T15:08:17;24.40;99.40
12434;DHT22;6281;49.038;8.372;2023-09-19T15:10:49;24.60;96.70
12434;DHT22;6281;49.038;8.372;2023-09-19T15:13:18;24.20;98.30
12434;DHT22;6281;49.038;8.372;2023-09-19T15:15:49;23.80;99.90
12434;DHT22;6281;49.038;8.372;2023-09-19T15:18:17;23.40;99.90
12434;DHT22;6281;49.038;8.372;2023-09-19T15:20:47;23.50;99.90
12434;DHT22;6281;49.038;8.372;2023-09-19T15:23:14;23.70;99.90
12434;DHT22;6281;49.038;8.372;2023-09-19T15:25:47;23.80;99.90
12434;DHT22;6281;49.038;8.372;2023-09-19T15:28:14;23.80;99.90
12434;DHT22;6281;49.038;8.372;2023-09-19T15:30:44;23.70;99.90
12434;DHT22;6281;49.038;8.372;2023-09-19T15:33:12;24.30;99.90
12434;DHT22;6281;49.038;8.372;2023-09-19T15:35:41;23.40;99.90
12434;DHT22;6281;49.038;8.372;2023-09-19T15:38:09;23.20;99.90
12434;DHT22;6281;49.038;8.372;2023-09-19T15:40:46;23.20;99.90
12434;DHT22;6281;49.038;8.372;2023-09-19T15:43:15;23.20;99.90
12434;DHT22;6281;49.038;8.372;2023-09-19T15:45:42;23.40;99.90
12434;DHT22;6281;49.038;8.372;2023-09-19T15:48:10;23.20;99.90
12434;DHT22;6281;49.038;8.372;2023-09-19T15:50:37;23.10;99.90
12434;DHT22;6281;49.038;8.372;2023-09-19T15:53:07;23.40;99.90
12434;DHT22;6281;49.038;8.372;2023-09-19T15:55:40;23.20;99.90
12434;DHT22;6281;49.038;8.372;2023-09-19T15:58:09;23.10;99.90
12434;DHT22;6281;49.038;8.372;2023-09-19T16:00:42;23.50;99.90
12434;DHT22;6281;49.038;8.372;2023-09-19T16:03:12;23.50;99.90
12434;DHT22;6281;49.038;8.372;2023-09-19T16:05:39;23.50;99.90
12434;DHT22;6281;49.038;8.372;2023-09-19T16:08:07;23.00;99.90
12434;DHT22;6281;49.038;8.372;2023-09-19T16:10:35;23.10;99.90
12434;DHT22;6281;49.038;8.372;2023-09-19T16:13:05;23.10;99.90
12434;DHT22;6281;49.038;8.372;2023-09-19T16:15:32;23.40;99.90
12434;DHT22;6281;49.038;8.372;2023-09-19T16:18:01;23.20;99.90
12434;DHT22;6281;49.038;8.372;2023-09-19T16:20:30;23.10;99.90